Terminal Aerodrome Forecast
Issued by NWS Omaha/Valley, NE

Home | Current Version | Previous Version | Text Only | Print | Product List | Glossary On
Versions: 1 2 3 4 5 6 7 8 9 10 11 12 13 14 15 16 17 18 19 20 21 22 23 24 25 26 27 28 29 30 31 32 33 34 35 36 37 38 39 40 41 42 43
000
FTUS43 KOAX 242341
TAFLNK
TAF
KLNK 242341Z 2500/2524 19007KT P6SM BKN050 BKN120
     FM250500 19005KT P6SM BKN025 OVC050
      TEMPO 2506/2510 4SM BR BKN015
     FM251000 20005KT P6SM OVC015
      TEMPO 2510/2514 4SM -DZ BR OVC007
     FM251500 19011KT P6SM OVC015
     FM251800 20011KT P6SM OVC050=

USA.gov is the U.S. government's official web portal to all federal, state and local government web resources and services.